Latest Weather Observations for Gabo Island

IDV60801

Issued at 6:02 am EDT Friday 20 January 2017 (issued every 30 minutes, with the page automatically refreshed every 10 minutes)

About weather observations | Map of weather stations | Latest weather observations for VIC | Other Formats
Station Details ID: 084016 Name: GABO ISLAND LIGHTHOUSE Lat: -37.57 Lon: 149.92 Height: 15.2 m
Data from the previous 72 hours. | See also: Recent months at Gabo Island
Date/Time
EDT
Temp
°C
App
Temp
°C
Dew
Point
°C
Rel
Hum
%
Delta-T
°C
Wind Press
QNH
hPa
Press
MSL
hPa
Rain since
9am
mm
Dir  Spd
km/h
Gust
km/h
Spd
kts
Gust
kts
20/06:00am 20.6 10.1 15.6 73 3.0 NNE 65 87 35 47 995.4 - 0.0
20/05:30am 20.8 11.0 15.4 71 3.2 NNE 61 83 33 45 995.8 - 0.0
20/05:00am 20.7 9.1 14.8 69 3.5 NNE 69 91 37 49 996.4 - 0.0
20/04:30am 20.8 10.7 14.5 67 3.7 NNE 61 80 33 43 997.5 - 0.0
20/04:00am 20.9 10.7 14.2 65 3.9 NNE 61 80 33 43 998.8 - 0.0
20/03:30am 20.8 11.2 14.9 69 3.5 NNE 59 80 32 43 999.3 - 0.0
20/03:03am 20.8 12.3 15.4 71 3.2 NNE 54 72 29 39 1000.5 - 0.0
20/03:00am 20.8 11.9 15.3 71 3.3 NNE 56 72 30 39 1000.5 1000.3 0.0
20/02:35am 20.5 11.6 16.7 79 2.3 NNE 59 78 32 42 1000.2 - 0.0
20/02:30am 20.2 11.0 17.1 82 1.9 NNE 61 78 33 42 1000.2 - 0.0
20/02:00am 19.7 8.8 17.1 85 1.6 NNE 70 85 38 46 1000.3 - 0.0
20/01:30am 20.4 11.0 16.6 79 2.3 NNE 61 80 33 43 1001.7 - 0.0
20/01:15am 20.6 12.1 16.3 76 2.6 NNE 56 74 30 40 1002.5 - 0.0
20/01:00am 20.6 13.0 16.7 78 2.4 NNE 52 65 28 35 1003.5 - 0.0
20/12:30am 20.7 12.8 16.9 79 2.3 NNE 54 67 29 36 1004.4 - 0.0
20/12:18am 20.4 12.8 16.6 79 2.3 NNE 52 72 28 39 1004.7 - 0.0
20/12:00am 20.1 13.1 17.2 83 1.8 NNE 50 65 27 35 1005.5 1005.4 0.0
 
Date/Time
EDT
Temp
°C
App
Temp
°C
Dew
Point
°C
Rel
Hum
%
Delta-T
°C
Wind Press
QNH
hPa
Press
MSL
hPa
Rain since
9am
mm
Dir  Spd
km/h
Gust
km/h
Spd
kts
Gust
kts
19/11:36pm 19.9 13.1 16.9 83 1.8 NNE 48 67 26 36 1006.0 - 0.0
19/11:30pm 20.1 13.1 17.2 83 1.8 NNE 50 65 27 35 1006.3 - 0.0
19/11:04pm 20.5 13.2 16.5 78 2.4 NNE 50 69 27 37 1007.2 - 0.0
19/11:00pm 20.8 13.3 16.0 74 2.9 NNE 50 65 27 35 1007.0 - 0.0
19/10:30pm 21.1 12.4 16.3 74 2.9 NE 57 69 31 37 1007.0 - 0.0
19/10:00pm 21.2 13.1 15.5 70 3.4 NE 52 67 28 36 1007.9 - 0.0
19/09:30pm 21.2 13.4 15.3 69 3.5 NNE 50 63 27 34 1008.2 - 0.0
19/09:00pm 21.0 12.7 14.9 68 3.6 NNE 52 65 28 35 1008.3 1008.2 0.0
19/08:30pm 21.0 13.2 15.1 69 3.5 NE 50 61 27 33 1008.7 - 0.0
19/08:00pm 21.0 12.6 14.7 67 3.7 NE 52 63 28 34 1008.9 - 0.0
19/07:30pm 21.0 12.9 14.5 66 3.8 NE 50 63 27 34 1009.1 - 0.0
19/07:00pm 20.9 12.7 14.2 65 3.9 NE 50 67 27 36 1009.0 - 0.0
19/06:30pm 21.1 13.4 14.4 65 3.9 NE 48 59 26 32 1009.2 - 0.0
19/06:00pm 21.1 12.3 14.4 65 3.9 NE 54 61 29 33 1009.5 1009.4 0.0
19/05:30pm 21.0 13.2 14.1 64 4.0 NE 48 61 26 33 1009.9 - 0.0
19/05:00pm 21.0 13.3 14.5 66 3.8 NE 48 57 26 31 1010.6 - 0.0
19/04:30pm 20.5 13.7 14.7 69 3.4 NE 44 54 24 29 1011.5 - 0.0
19/04:00pm 20.5 13.7 14.7 69 3.4 NE 44 54 24 29 1011.8 - 0.0
19/03:30pm 19.6 14.5 15.7 78 2.3 NE 37 48 20 26 1012.5 - 0.0
19/03:00pm 19.6 13.7 15.7 78 2.3 NE 41 52 22 28 1012.8 1012.8 0.0
19/02:30pm 21.3 16.7 14.5 65 4.0 ENE 32 37 17 20 1013.0 - 0.0
19/02:00pm 21.2 17.1 13.8 62 4.3 ENE 28 35 15 19 1013.5 - 0.0
19/01:30pm 21.2 17.1 13.8 62 4.3 ENE 28 32 15 17 1013.8 - 0.0
19/01:00pm 20.4 16.5 13.2 63 4.1 E 26 30 14 16 1014.1 - 0.0
19/12:30pm 20.5 17.3 13.1 62 4.2 ENE 22 26 12 14 1014.6 - 0.0
19/12:00pm 20.5 17.9 13.1 62 4.2 ENE 19 22 10 12 1014.9 1014.8 0.0
19/11:30am 20.6 18.9 12.6 60 4.5 E 13 17 7 9 1015.2 - 0.0
19/11:00am 19.5 18.4 12.1 62 4.1 SE 9 11 5 6 1015.5 - 0.0
19/10:30am 18.9 18.1 11.8 63 3.9 S 7 11 4 6 1015.7 - 0.0
19/10:00am 18.3 17.0 11.3 63 3.8 SW 9 11 5 6 1015.8 - 0.0
19/09:30am 17.9 16.1 10.8 63 3.8 SW 11 13 6 7 1015.9 - 0.0
19/09:00am 18.1 15.9 10.9 63 3.9 SW 13 17 7 9 1016.1 1016.0 0.0
19/08:30am 17.5 14.5 9.2 58 4.3 W 15 17 8 9 1016.1 - 0.0
19/08:00am 16.7 13.3 9.2 61 3.9 WNW 17 19 9 10 1016.2 - 0.0
19/07:30am 16.0 12.6 9.2 64 3.5 WNW 17 20 9 11 1016.1 - 0.0
19/07:00am 14.9 11.5 9.2 68 2.9 WNW 17 20 9 11 1015.8 - 0.0
19/06:30am 14.2 10.8 9.1 71 2.6 WNW 17 22 9 12 1015.7 - 0.0
19/06:00am 14.1 10.3 9.2 72 2.5 WNW 19 22 10 12 1015.5 1015.5 0.0
19/05:30am 14.0 10.3 9.3 73 2.4 WNW 19 24 10 13 1015.4 - 0.0
19/05:00am 14.0 10.0 9.1 72 2.5 WNW 20 26 11 14 1015.2 - 0.0
19/04:30am 13.9 10.2 9.4 74 2.3 WNW 19 26 10 14 1015.0 - 0.0
19/04:00am 14.2 10.3 9.5 73 2.4 WNW 20 28 11 15 1015.0 - 0.0
19/03:30am 14.4 10.5 9.3 71 2.6 WNW 20 28 11 15 1015.4 - 0.0
19/03:00am 14.4 10.4 9.1 70 2.7 NW 20 26 11 14 1015.7 1015.6 0.0
19/02:30am 14.3 10.4 9.6 73 2.4 NW 20 32 11 17 1016.0 - 0.0
19/02:00am 14.3 10.4 9.6 73 2.4 NW 20 28 11 15 1016.2 - 0.0
19/01:30am 14.8 11.6 10.0 73 2.5 NW 17 28 9 15 1016.4 - 0.0
19/01:00am 16.0 12.1 10.7 71 2.8 W 22 28 12 15 1016.4 - 0.0
19/12:30am 16.6 12.3 10.8 68 3.1 W 24 30 13 16 1016.3 - 0.0
19/12:00am 17.4 12.1 10.0 62 3.9 SW 28 35 15 19 1016.5 1016.4 0.0
 
Date/Time
EDT
Temp
°C
App
Temp
°C
Dew
Point
°C
Rel
Hum
%
Delta-T
°C
Wind Press
QNH
hPa
Press
MSL
hPa
Rain since
9am
mm
Dir  Spd
km/h
Gust
km/h
Spd
kts
Gust
kts
18/11:30pm 17.5 11.0 8.8 56 4.5 SSW 33 39 18 21 1016.5 - 0.0
18/11:00pm 17.7 11.1 9.9 60 4.1 SSW 35 44 19 24 1016.5 - 0.0
18/10:30pm 17.6 9.9 10.0 61 4.0 SSW 41 50 22 27 1016.3 - 0.0
18/10:00pm 17.7 9.8 9.5 58 4.3 SW 41 52 22 28 1016.1 - 0.0
18/09:30pm 17.6 9.4 9.8 60 4.1 SSW 43 52 23 28 1015.7 - 0.0
18/09:00pm 17.9 9.2 11.3 65 3.6 SSW 48 56 26 30 1015.0 1014.9 0.0
18/08:30pm 17.6 8.3 10.5 63 3.8 SSW 50 61 27 33 1014.6 - 0.0
18/08:00pm 17.5 7.2 9.7 60 4.1 SSW 54 63 29 34 1014.3 - 0.0
18/07:30pm 18.0 7.9 10.3 60 4.1 SSW 54 63 29 34 1013.6 - 0.0
18/07:00pm 18.3 7.4 9.6 57 4.6 SSW 57 69 31 37 1013.1 - 0.0
18/06:30pm 18.5 7.5 9.1 54 4.9 SW 57 72 31 39 1012.9 - 0.0
18/06:00pm 18.5 7.6 10.9 61 4.1 SW 59 70 32 38 1012.7 1012.6 0.0
18/05:30pm 19.5 9.0 12.3 63 4.0 SW 59 70 32 38 1012.4 - 0.0
18/05:00pm 19.1 8.2 12.3 64 3.8 SW 61 72 33 39 1012.2 - 0.0
18/04:30pm 20.0 9.8 13.1 64 3.9 SW 59 72 32 39 1012.2 - 0.0
18/04:00pm 19.3 8.6 12.9 66 3.6 SW 61 76 33 41 1011.9 - 0.0
18/03:30pm 19.9 9.0 13.4 66 3.7 SW 63 76 34 41 1011.5 - 0.0
18/03:00pm 19.8 8.2 11.0 57 4.8 SW 63 80 34 43 1011.3 1011.1 0.0
18/02:30pm 19.9 8.5 10.5 54 5.1 SW 61 74 33 40 1011.3 - 0.0
18/02:00pm 19.3 8.1 12.3 64 3.9 SW 63 74 34 40 1011.2 - 0.0
18/01:33pm 19.5 8.1 13.0 66 3.7 SW 65 83 35 45 1010.8 - 0.0
18/01:30pm 19.2 7.0 11.6 61 4.2 SW 67 83 36 45 1010.8 - 0.0
18/01:00pm 19.2 8.9 11.8 62 4.1 SW 57 72 31 39 1010.8 - 0.0
18/12:30pm 19.0 7.4 11.1 60 4.3 SW 63 76 34 41 1010.4 - 0.0
18/12:00pm 18.2 6.9 10.8 62 4.0 SW 61 76 33 41 1010.4 1010.3 0.0
18/11:30am 17.9 6.7 12.5 70 3.0 SW 63 78 34 42 1010.1 - 0.0
18/11:00am 17.5 6.7 13.8 79 2.1 SW 63 74 34 40 1009.7 - 0.0
18/10:30am 18.3 8.9 15.6 84 1.6 SW 59 70 32 38 1009.3 - 0.0
18/10:00am 19.0 9.2 14.3 74 2.7 SW 59 74 32 40 1009.0 - 0.0
18/09:54am 18.9 9.6 14.2 74 2.7 SW 56 74 30 40 1008.9 - 0.0
18/09:30am 19.4 10.1 15.7 79 2.2 SW 59 72 32 39 1008.4 - 0.0
18/09:00am 20.3 12.0 16.8 80 2.1 SW 56 69 30 37 1007.7 1007.5 0.0
18/08:35am 21.1 11.7 15.6 71 3.3 SW 59 65 32 35 1006.8 - 0.0
18/08:30am 21.4 15.6 15.0 67 3.8 SW 39 61 21 33 1006.8 - 0.0
18/08:29am 21.6 16.2 15.0 66 3.9 SSW 37 61 20 33 1006.9 - 0.0
18/08:22am 21.7 17.2 13.8 60 4.6 SSW 30 37 16 20 1006.6 - 0.0
18/08:00am 21.4 19.9 13.0 58 4.8 W 13 17 7 9 1005.9 - 0.0
18/07:30am 21.1 18.5 12.0 56 5.1 WNW 17 20 9 11 1005.0 - 0.0
18/07:00am 20.6 17.5 13.3 63 4.2 W 22 26 12 14 1006.1 - 0.0
18/06:30am 20.9 17.8 13.4 62 4.3 W 22 26 12 14 1006.2 - 0.0
18/06:00am 21.5 17.2 13.3 59 4.7 WSW 28 35 15 19 1006.1 1005.9 0.0
18/05:30am 20.8 17.9 13.9 64 4.0 W 22 28 12 15 1006.1 - 0.0
18/05:00am 20.2 17.8 14.4 69 3.4 W 20 24 11 13 1005.9 - 0.0
18/04:30am 20.3 18.3 16.5 79 2.3 WSW 22 26 12 14 1005.4 - 0.0
18/04:00am 21.0 18.0 16.7 76 2.6 WSW 28 33 15 18 1005.4 - 0.0
18/03:30am 21.5 17.3 17.1 76 2.7 SW 35 41 19 22 1005.6 - 0.0
18/03:15am 21.2 17.0 17.1 77 2.5 WSW 35 44 19 24 1005.7 - 0.0
18/03:00am 20.5 19.4 18.6 89 1.2 W 22 24 12 13 1005.5 1005.6 0.0
18/02:30am 22.2 22.8 20.3 89 1.2 WSW 17 19 9 10 1005.2 - 0.0
18/02:00am 22.5 23.1 20.3 87 1.4 SW 17 20 9 11 1005.5 - 0.0
18/01:30am 22.3 21.6 19.5 84 1.8 SSW 22 30 12 16 1005.3 - 0.0
18/01:00am 21.1 20.8 16.5 75 2.8 N 13 13 7 7 1004.5 - 0.0
18/12:30am 21.4 22.4 16.8 75 2.8 NNE 7 9 4 5 1005.5 - 0.0
18/12:00am 21.6 22.4 17.2 76 2.7 NNE 9 9 5 5 1006.2 1006.0 0.0
 
Date/Time
EDT
Temp
°C
App
Temp
°C
Dew
Point
°C
Rel
Hum
%
Delta-T
°C
Wind Press
QNH
hPa
Press
MSL
hPa
Rain since
9am
mm
Dir  Spd
km/h
Gust
km/h
Spd
kts
Gust
kts
17/11:30pm 22.5 23.6 17.1 71 3.3 NNE 7 7 4 4 1006.8 - 0.0
17/11:00pm 21.8 22.2 16.4 71 3.3 NNE 9 11 5 6 1007.3 - 0.0
17/10:30pm 23.6 24.2 16.8 65 4.2 NNE 9 9 5 5 1007.7 - 0.0
17/10:00pm 23.7 24.0 16.9 65 4.2 N 11 13 6 7 1007.6 - 0.0
17/09:30pm 24.2 23.7 16.9 63 4.5 N 15 19 8 10 1007.7 - 0.0
17/09:00pm 24.5 24.2 16.5 61 4.9 N 13 15 7 8 1007.4 1007.3 0.0
17/08:30pm 25.2 25.2 16.2 57 5.5 NNE 11 13 6 7 1007.8 - 0.0
17/08:00pm 25.6 26.8 17.3 60 5.2 NE 7 11 4 6 1007.7 - 0.0
17/07:30pm 25.2 27.4 20.5 75 3.1 E 9 13 5 7 1007.8 - 0.0
17/07:00pm 25.8 27.1 20.1 71 3.7 ESE 13 19 7 10 1007.6 - 0.0
17/06:30pm 26.2 26.6 19.9 68 4.1 SE 17 20 9 11 1007.5 - 0.0
17/06:00pm 25.7 25.6 20.7 74 3.3 SE 22 26 12 14 1007.5 1007.4 0.0
17/05:30pm 26.4 27.1 21.6 75 3.2 S 20 28 11 15 1007.4 - 0.0
17/05:00pm 27.8 26.6 16.0 48 7.3 NNE 17 20 9 11 1006.6 - 0.0
17/04:30pm 26.2 24.9 16.9 56 5.8 NNE 19 24 10 13 1006.4 - 0.0
17/04:00pm 25.2 24.3 20.6 75 3.0 NE 26 30 14 16 1006.2 - 0.0
17/03:30pm 28.8 25.4 15.7 45 8.1 NNE 28 33 15 18 1006.3 - 0.0
17/03:00pm 28.0 24.7 17.9 54 6.4 NNE 32 39 17 21 1006.2 1006.1 0.0
17/02:30pm 27.4 25.3 19.7 63 5.0 NE 30 37 16 20 1006.2 - 0.0
17/02:00pm 26.6 26.3 20.4 69 4.1 NE 22 30 12 16 1006.8 - 0.0
17/01:30pm 26.2 26.2 20.2 69 3.9 NE 20 28 11 15 1007.2 - 0.0
17/01:00pm 26.4 27.8 20.3 69 4.0 NE 13 20 7 11 1007.7 - 0.0
17/12:30pm 26.0 27.3 20.2 70 3.8 NE 13 19 7 10 1008.1 - 0.0
17/12:00pm 25.1 26.0 20.0 73 3.3 NE 15 20 8 11 1008.6 1008.5 0.0
17/11:30am 24.8 25.7 19.2 71 3.6 NNE 13 17 7 9 1008.8 - 0.0
17/11:00am 24.4 24.9 18.4 69 3.8 NNE 13 15 7 8 1009.1 - 0.0
17/10:30am 24.3 26.4 19.0 72 3.4 ENE 6 9 3 5 1009.4 - 0.0
17/10:00am 24.1 24.3 15.7 59 5.1 NE 9 9 5 5 1009.3 - 0.0
17/09:30am 23.7 25.5 15.6 60 4.9 CALM 0 0 0 0 1009.5 - 0.0
17/09:00am 23.3 24.9 17.0 67 3.9 S 4 6 2 3 1009.6 1009.5 0.0
17/08:30am 22.2 23.0 16.3 69 3.6 NNE 7 11 4 6 1009.6 - 0.0
17/08:00am 20.7 21.0 17.1 80 2.2 NE 11 15 6 8 1009.5 - 0.0
17/07:30am 20.7 20.7 17.1 80 2.2 NNE 13 17 7 9 1008.8 - 0.0
17/07:00am 19.4 19.9 16.6 84 1.7 NNE 9 11 5 6 1008.8 - 0.0
17/06:30am 18.7 19.3 16.7 88 1.2 NNE 9 11 5 6 1008.6 - 0.0

Other Formats:

Comma delimited format used in spreadsheet applications
http://www.bom.gov.au/fwo/IDV60801/IDV60801.94933.axf

JavaScript Object Notation format (JSON) in row-major order
http://www.bom.gov.au/fwo/IDV60801/IDV60801.94933.json